createdAt,value
2023-01-10T00:28:07.823Z,34.20
2023-01-10T00:32:19.115Z,42.70
2023-01-10T00:36:15.092Z,44.00
2023-01-10T00:43:36.706Z,46.40
2023-01-10T00:48:06.625Z,45.50
2023-01-10T00:52:08.005Z,46.30
2023-01-10T00:55:51.732Z,48.80
2023-01-10T01:37:19.671Z,40.40
2023-01-10T01:48:28.133Z,38.50
2023-01-10T01:55:36.452Z,39.60
2023-01-10T02:20:26.677Z,41.70
2023-01-10T02:24:02.495Z,42.50
2023-01-10T02:27:51.015Z,43.50
2023-01-10T02:32:03.274Z,44.70
2023-01-10T03:03:21.366Z,50.40
2023-01-10T03:07:35.275Z,46.50
2023-01-10T03:11:22.372Z,46.30
2023-01-10T03:14:54.357Z,47.20
2023-01-10T03:18:43.352Z,45.90
2023-01-10T03:22:34.372Z,51.50
2023-01-10T03:26:27.855Z,46.60
2023-01-10T03:41:29.452Z,48.90
2023-01-10T03:45:17.094Z,49.10
2023-01-10T03:49:11.725Z,53.20
2023-01-10T03:52:44.238Z,56.00
2023-01-10T03:56:50.962Z,55.30
2023-01-10T04:03:49.384Z,66.10
2023-01-10T04:08:15.404Z,59.00
2023-01-10T04:39:13.373Z,62.50
2023-01-10T04:46:47.275Z,56.30
2023-01-10T04:51:05.060Z,58.30
2023-01-10T04:58:06.521Z,49.70
2023-01-10T05:01:47.265Z,59.60
2023-01-10T05:05:22.258Z,51.90
2023-01-10T05:09:23.433Z,57.40
2023-01-10T05:13:18.345Z,57.20
2023-01-10T06:11:36.678Z,63.90
2023-01-10T14:25:36.522Z,58.10
2023-01-10T14:32:40.466Z,59.70
2023-01-10T15:55:26.754Z,70.90
2023-01-10T16:06:13.697Z,70.80
2023-01-10T16:09:46.059Z,70.60
2023-01-10T16:12:46.587Z,68.10
2023-01-10T16:15:18.844Z,57.90
2023-01-10T16:17:47.752Z,57.70
2023-01-10T16:21:23.840Z,56.80
2023-01-10T16:25:49.798Z,63.90
2023-01-10T16:29:10.086Z,55.90
2023-01-10T16:32:32.988Z,54.90
2023-01-10T16:35:02.163Z,56.70
2023-01-10T16:37:53.516Z,54.40
2023-01-10T16:42:16.588Z,48.60
2023-01-10T16:56:09.825Z,53.20
2023-01-10T16:59:24.118Z,49.20
2023-01-10T17:06:08.829Z,43.30
2023-01-10T17:09:49.902Z,47.50
2023-01-10T17:17:08.869Z,52.40
2023-01-10T17:32:18.896Z,37.50
2023-01-10T18:05:46.898Z,42.40
2023-01-10T18:30:18.908Z,53.70
2023-01-10T18:33:50.079Z,58.00
2023-01-10T18:37:08.813Z,54.40
2023-01-10T18:56:16.602Z,61.80
2023-01-10T18:58:45.593Z,67.20
2023-01-10T19:01:45.579Z,66.40
2023-01-10T19:04:20.835Z,65.80
2023-01-10T19:06:49.783Z,64.80
2023-01-10T19:10:00.806Z,64.50
2023-01-10T19:12:40.818Z,65.10
2023-01-10T19:15:09.261Z,59.20
2023-01-10T19:17:42.998Z,59.30
2023-01-10T19:20:25.675Z,65.30
2023-01-10T19:22:55.433Z,60.90
2023-01-10T19:25:22.347Z,55.80
2023-01-10T19:27:49.795Z,59.00
2023-01-10T19:30:17.133Z,63.40
2023-01-10T19:32:44.224Z,62.20
2023-01-10T19:35:11.386Z,58.10
2023-01-10T19:37:38.557Z,55.00
2023-01-10T19:40:08.119Z,60.40
2023-01-10T19:42:37.201Z,61.40
2023-01-10T19:45:05.545Z,61.40
2023-01-10T19:47:33.374Z,56.20
2023-01-10T19:50:00.627Z,59.70
2023-01-10T19:52:30.752Z,62.70
2023-01-10T19:54:58.584Z,61.80
2023-01-10T19:57:29.481Z,58.70
2023-01-10T20:00:31.041Z,58.40
2023-01-10T20:04:12.624Z,55.80
2023-01-10T20:07:24.705Z,58.30
2023-01-10T20:17:13.063Z,54.80
2023-01-10T20:20:01.621Z,57.10
2023-01-10T20:23:10.902Z,61.20
2023-01-10T20:25:38.252Z,59.40
2023-01-10T20:36:46.663Z,63.70
2023-01-10T20:39:30.754Z,61.40
2023-01-10T20:42:06.311Z,63.70
2023-01-10T20:44:58.241Z,72.10
2023-01-10T20:47:42.368Z,67.20
2023-01-10T20:50:12.329Z,63.30
2023-01-10T20:53:00.839Z,68.20
2023-01-10T20:56:20.504Z,65.80
2023-01-10T20:59:49.245Z,67.20
2023-01-10T22:06:40.338Z,48.40
2023-01-10T22:14:33.152Z,49.10
2023-01-10T22:18:05.152Z,50.90
2023-01-10T22:26:12.327Z,56.00
2023-01-10T22:43:57.770Z,56.20
2023-01-10T22:47:39.278Z,56.80
2023-01-10T22:51:11.075Z,54.90
2023-01-10T22:54:44.118Z,56.20
2023-01-10T22:58:33.815Z,56.40
2023-01-10T23:02:06.113Z,58.90
2023-01-10T23:05:58.092Z,51.60
2023-01-10T23:09:44.071Z,50.00
2023-01-10T23:13:23.138Z,47.70
2023-01-10T23:24:09.498Z,54.20
2023-01-10T23:41:58.151Z,48.20
2023-01-10T23:45:30.159Z,48.50
2023-01-10T23:53:07.119Z,49.80
